Time;durP1;ratioP1;P1;durP2;ratioP2;P2;SDS_P1;SDS_P2;PMS_P1;PMS_P2;Temp;Humidity;BMP_temperature;BMP_pressure;BME280_temperature;BME280_humidity;BME280_pressure;Samples;Min_cycle;Max_cycle;Signal;HPM_P1;HPM_P2
2022/01/04 00:01:31;;;;;;;2.60;2.40;;;10.40;1.00;;;;;;5011579;28;20417;-78
2022/01/04 00:04:07;;;;;;;5.40;2.70;;;10.40;1.00;;;;;;4994727;28;20452;-77
2022/01/04 00:06:45;;;;;;;13.20;3.53;;;10.40;1.00;;;;;;5011927;28;20419;-77
2022/01/04 00:09:11;;;;;;;2.77;2.47;;;10.50;1.00;;;;;;5013897;28;20421;-77
2022/01/04 00:13:22;;;;;;;3.23;2.83;;;10.40;1.00;;;;;;5006636;28;20426;-77
2022/01/04 00:15:06;;;;;;;3.10;2.80;;;10.40;1.00;;;;;;5009406;28;20419;-81
2022/01/04 00:17:32;;;;;;;2.47;2.27;;;10.40;1.00;;;;;;4996183;28;20396;-81
2022/01/04 00:20:02;;;;;;;2.60;2.40;;;10.40;1.00;;;;;;5013770;28;20420;-81
2022/01/04 00:22:38;;;;;;;2.37;2.17;;;10.50;1.00;;;;;;4986641;28;20432;-81
2022/01/04 00:25:07;;;;;;;2.27;2.03;;;10.40;1.00;;;;;;5003612;28;20523;-81
2022/01/04 00:27:43;;;;;;;2.80;2.27;;;10.50;1.00;;;;;;5010408;28;20906;-81
2022/01/04 00:30:30;;;;;;;2.93;2.00;;;10.40;1.00;;;;;;5014178;28;20952;-81
2022/01/04 00:33:37;;;;;;;2.60;2.40;;;10.40;1.00;;;;;;5008303;28;20394;-81
2022/01/04 00:36:30;;;;;;;5.80;1.70;;;;;;;;;;5004170;28;20939;-82
2022/01/04 00:39:30;;;;;;;2.70;2.13;;;10.50;1.00;;;;;;5013570;28;20415;-81
2022/01/04 00:45:19;;;;;;;3.43;2.03;;;10.40;1.00;;;;;;5008508;28;20470;-81
2022/01/04 00:50:54;;;;;;;2.30;1.77;;;10.50;1.00;;;;;;5009766;28;20915;-81
2022/01/04 00:57:00;;;;;;;2.20;1.77;;;10.50;1.00;;;;;;5015788;28;20433;-81
2022/01/04 00:59:48;;;;;;;2.50;1.80;;;10.50;1.00;;;;;;5014962;28;20447;-81
2022/01/04 01:02:31;;;;;;;1.93;1.83;;;10.40;1.00;;;;;;5004045;28;20445;-77
2022/01/04 01:05:26;;;;;;;2.50;1.83;;;10.40;1.00;;;;;;5010111;28;20510;-77
2022/01/04 01:07:53;;;;;;;1.60;1.50;;;10.50;1.00;;;;;;5014740;28;20423;-77
2022/01/04 01:10:47;;;;;;;2.40;2.17;;;10.50;1.00;;;;;;5017149;28;20843;-77
2022/01/04 01:13:49;;;;;;;2.73;1.93;;;10.50;1.00;;;;;;5010745;28;20423;-77
2022/01/04 01:16:25;;;;;;;1.70;1.60;;;10.50;1.00;;;;;;5013588;28;20962;-78
2022/01/04 01:19:01;;;;;;;2.10;2.00;;;10.50;1.00;;;;;;5017120;28;20511;-77
2022/01/04 01:21:27;;;;;;;2.60;1.53;;;10.50;1.00;;;;;;5016785;28;20914;-77
2022/01/04 01:23:55;;;;;;;1.83;1.73;;;10.50;1.00;;;;;;5005934;28;20538;-77
2022/01/04 01:26:22;;;;;;;1.77;1.67;;;10.50;1.00;;;;;;5007160;28;20277;-77
2022/01/04 01:28:47;;;;;;;1.80;1.70;;;10.50;1.00;;;;;;5009267;28;20408;-77
2022/01/04 01:31:13;;;;;;;2.03;1.83;;;10.50;1.00;;;;;;5006045;28;20776;-78
2022/01/04 01:33:49;;;;;;;2.40;1.80;;;10.60;1.00;;;;;;5013279;28;20181;-78
2022/01/04 01:36:36;;;;;;;2.10;2.00;;;10.60;1.00;;;;;;4985405;28;20544;-77
2022/01/04 01:39:03;;;;;;;1.93;1.77;;;10.60;1.00;;;;;;5004639;28;20419;-77
2022/01/04 01:42:00;;;;;;;2.23;2.03;;;10.50;1.00;;;;;;5014582;28;20426;-77
2022/01/04 01:44:29;;;;;;;1.60;1.50;;;10.60;1.00;;;;;;5004160;28;20414;-77
2022/01/04 01:46:55;;;;;;;1.60;1.50;;;10.60;1.00;;;;;;5006787;28;20412;-81
2022/01/04 01:49:25;;;;;;;1.40;1.30;;;10.60;1.00;;;;;;5016277;28;20400;-81
2022/01/04 01:52:02;;;;;;;3.53;1.73;;;10.60;1.00;;;;;;4995573;28;20188;-82
2022/01/04 01:54:43;;;;;;;1.63;1.50;;;10.60;1.00;;;;;;4999034;28;20399;-81
2022/01/04 01:57:13;;;;;;;1.50;1.40;;;10.60;1.00;;;;;;5012895;28;20501;-81
2022/01/04 01:59:49;;;;;;;1.80;1.70;;;10.60;1.00;;;;;;5014439;28;20406;-81
2022/01/04 02:02:19;;;;;;;1.10;1.00;;;10.60;1.00;;;;;;4997333;28;20911;-81
2022/01/04 02:04:55;;;;;;;2.87;1.20;;;10.70;1.00;;;;;;5015770;28;20417;-81
2022/01/04 02:07:32;;;;;;;1.57;1.47;;;10.70;1.00;;;;;;5013771;28;20494;-81
2022/01/04 02:10:36;;;;;;;1.83;1.20;;;10.70;1.00;;;;;;5014089;28;20759;-81
2022/01/04 02:13:07;;;;;;;0.87;0.87;;;10.70;1.00;;;;;;5009631;28;20450;-81
2022/01/04 02:15:37;;;;;;;1.10;1.00;;;10.70;1.00;;;;;;4995558;28;20474;-78
2022/01/04 02:18:08;;;;;;;2.57;1.23;;;10.70;1.00;;;;;;5015776;28;20740;-77
2022/01/04 02:20:34;;;;;;;1.27;1.17;;;10.80;1.00;;;;;;5015810;28;20494;-77
2022/01/04 02:23:01;;;;;;;1.13;0.93;;;10.70;1.00;;;;;;5010502;28;20511;-78
2022/01/04 02:25:28;;;;;;;0.90;0.80;;;10.80;1.00;;;;;;4997517;28;20385;-77
2022/01/04 02:28:01;;;;;;;2.20;1.07;;;10.90;1.00;;;;;;5001172;28;20410;-77
2022/01/04 02:31:12;;;;;;;1.33;1.23;;;10.80;1.00;;;;;;5015701;28;20931;-79
2022/01/04 02:33:43;;;;;;;1.30;1.10;;;10.80;1.00;;;;;;5009677;28;20442;-81
2022/01/04 02:36:09;;;;;;;1.47;1.37;;;10.70;1.00;;;;;;5009829;28;20449;-81
2022/01/04 02:38:51;;;;;;;1.70;1.27;;;10.80;1.00;;;;;;5008944;28;20427;-81
2022/01/04 02:41:19;;;;;;;1.40;1.30;;;10.80;1.00;;;;;;5007952;28;20427;-81
2022/01/04 02:44:01;;;;;;;1.00;1.00;;;10.90;1.00;;;;;;5005911;28;20423;-81
2022/01/04 02:46:37;;;;;;;1.83;1.50;;;10.90;1.00;;;;;;5006080;28;20461;-77
2022/01/04 02:49:19;;;;;;;1.43;1.33;;;11.00;1.00;;;;;;5006310;28;20424;-77
2022/01/04 02:51:49;;;;;;;0.90;0.90;;;11.00;1.00;;;;;;4996249;28;20427;-77
2022/01/04 02:54:15;;;;;;;1.30;1.20;;;11.00;1.00;;;;;;5009530;28;20426;-77
2022/01/04 02:56:40;;;;;;;1.67;1.50;;;11.00;1.00;;;;;;5011222;28;20474;-77
2022/01/04 02:59:19;;;;;;;2.73;1.57;;;11.00;1.00;;;;;;5015718;28;20207;-77
2022/01/04 03:02:01;;;;;;;1.67;1.57;;;11.30;1.00;;;;;;5015021;28;20177;-77
2022/01/04 03:04:37;;;;;;;1.63;1.53;;;10.90;1.00;;;;;;5011175;28;20420;-77
2022/01/04 03:07:13;;;;;;;1.73;1.43;;;10.90;1.00;;;;;;5007971;28;20464;-77
2022/01/04 03:09:43;;;;;;;1.67;1.57;;;10.90;1.00;;;;;;5015301;28;20413;-77
2022/01/04 03:12:39;;;;;;;2.40;1.80;;;11.00;1.00;;;;;;5015000;28;20500;-77
2022/01/04 03:15:07;;;;;;;3.07;2.10;;;10.90;1.00;;;;;;5002104;28;20461;-77
2022/01/04 03:21:13;;;;;;;1.30;1.20;;;10.90;1.00;;;;;;4996995;28;20411;-81
2022/01/04 03:24:02;;;;;;;1.63;1.53;;;10.90;1.00;;;;;;5007764;28;20400;-81
2022/01/04 03:26:27;;;;;;;1.77;1.23;;;10.90;1.00;;;;;;5007154;28;20437;-80
2022/01/04 03:28:53;;;;;;;1.80;1.60;;;11.00;1.00;;;;;;4994617;28;20503;-81
2022/01/04 03:31:19;;;;;;;1.47;1.37;;;10.90;1.00;;;;;;5007581;28;20173;-77
2022/01/04 03:33:49;;;;;;;1.93;1.50;;;11.00;1.00;;;;;;5012183;28;20182;-77
2022/01/04 03:36:21;;;;;;;1.40;1.30;;;11.00;1.00;;;;;;5005203;28;20193;-77
2022/01/04 03:38:48;;;;;;;1.50;1.40;;;11.00;1.00;;;;;;5011870;28;20436;-77
2022/01/04 03:41:20;;;;;;;2.00;1.90;;;11.00;1.00;;;;;;5014341;28;20921;-77
2022/01/04 03:44:01;;;;;;;1.60;1.50;;;11.00;1.00;;;;;;5014645;28;20414;-77
2022/01/04 03:46:31;;;;;;;2.63;1.70;;;11.00;1.00;;;;;;5008709;28;20866;-78
2022/01/04 03:49:01;;;;;;;2.13;1.70;;;11.00;1.00;;;;;;5005596;28;20413;-78
2022/01/04 03:51:37;;;;;;;1.40;1.33;;;11.10;1.00;;;;;;5010251;28;20412;-77
2022/01/04 03:54:07;;;;;;;2.40;1.70;;;11.00;1.00;;;;;;5005280;28;20901;-77
2022/01/04 03:56:43;;;;;;;3.27;2.03;;;11.10;1.00;;;;;;5010656;28;20460;-77
2022/01/04 03:59:13;;;;;;;5.30;2.17;;;11.10;1.00;;;;;;5014100;28;20382;-77
2022/01/04 04:01:43;;;;;;;3.90;1.40;;;11.10;1.00;;;;;;4998453;28;20383;-78
2022/01/04 04:04:13;;;;;;;8.63;1.53;;;11.00;1.00;;;;;;5013266;28;20420;-77
2022/01/04 04:07:12;;;;;;;2.07;1.40;;;11.00;1.00;;;;;;5008059;28;20888;-77
2022/01/04 04:09:39;;;;;;;4.37;2.10;;;11.00;1.00;;;;;;5012171;28;20467;-77
2022/01/04 04:12:07;;;;;;;2.33;2.13;;;;;;;;;;5011091;28;20414;-77
2022/01/04 04:14:33;;;;;;;1.87;1.33;;;11.00;1.00;;;;;;5012622;28;20423;-77
2022/01/04 04:17:07;;;;;;;2.33;1.83;;;11.00;1.00;;;;;;4994381;28;20448;-81
2022/01/04 04:19:43;;;;;;;7.13;1.73;;;11.10;1.00;;;;;;5011551;28;20795;-81
2022/01/04 04:22:43;;;;;;;5.07;1.93;;;11.00;1.00;;;;;;5013895;28;20392;-81
2022/01/04 04:25:19;;;;;;;1.63;1.50;;;11.10;1.00;;;;;;5013306;28;20772;-81
2022/01/04 04:27:55;;;;;;;3.20;1.90;;;11.00;1.00;;;;;;4991125;28;20443;-81
2022/01/04 04:30:31;;;;;;;3.50;1.93;;;11.00;1.00;;;;;;5013633;28;20389;-81
2022/01/04 04:33:01;;;;;;;3.20;1.83;;;11.00;1.00;;;;;;5014079;28;20378;-78
2022/01/04 04:35:37;;;;;;;2.70;2.27;;;11.00;1.00;;;;;;5004686;28;20504;-77
2022/01/04 04:38:05;;;;;;;2.90;2.43;;;11.00;1.00;;;;;;5001018;28;20403;-77
2022/01/04 04:40:31;;;;;;;2.10;2.00;;;11.00;1.00;;;;;;4996053;28;20988;-77
2022/01/04 04:43:01;;;;;;;3.67;2.07;;;11.00;1.00;;;;;;5013125;28;20394;-77
2022/01/04 04:45:27;;;;;;;1.90;1.80;;;11.00;1.00;;;;;;5009425;28;20173;-77
2022/01/04 04:47:55;;;;;;;2.30;1.90;;;11.10;1.00;;;;;;5014401;28;20453;-77
2022/01/04 04:50:25;;;;;;;6.20;2.27;;;10.90;1.00;;;;;;5013642;28;20503;-77
2022/01/04 04:52:57;;;;;;;2.90;2.13;;;10.90;1.00;;;;;;5008454;28;20418;-77
2022/01/04 04:55:37;;;;;;;3.50;2.30;;;11.00;1.00;;;;;;5004544;28;20424;-77
2022/01/04 04:58:03;;;;;;;3.23;2.10;;;11.00;1.00;;;;;;5004331;28;20431;-77
2022/01/04 05:00:37;;;;;;;1.80;1.70;;;11.00;1.00;;;;;;5012516;28;20383;-78
2022/01/04 05:03:25;;;;;;;3.27;2.33;;;11.00;1.00;;;;;;5012568;28;20651;-77
2022/01/04 05:06:30;;;;;;;3.63;2.53;;;11.00;1.00;;;;;;5006703;28;20419;-77
2022/01/04 05:09:13;;;;;;;2.13;1.90;;;11.00;1.00;;;;;;5007291;28;20452;-77
2022/01/04 05:11:43;;;;;;;5.40;2.27;;;10.90;1.00;;;;;;4997680;28;20786;-77
2022/01/04 05:14:25;;;;;;;2.43;2.23;;;10.90;1.00;;;;;;5013707;28;20413;-77
2022/01/04 05:16:55;;;;;;;2.53;2.33;;;10.90;1.00;;;;;;5001306;28;20970;-77
2022/01/04 05:19:43;;;;;;;1.60;1.50;;;10.90;1.00;;;;;;5003980;28;20427;-81
2022/01/04 05:22:25;;;;;;;4.07;2.57;;;10.90;1.00;;;;;;4995769;28;20424;-81
2022/01/04 05:25:18;;;;;;;2.30;2.10;;;10.90;1.00;;;;;;5012250;28;20422;-82
2022/01/04 05:27:44;;;;;;;3.73;2.53;;;10.90;1.00;;;;;;5012786;28;20443;-81
2022/01/04 05:30:13;;;;;;;2.03;1.87;;;10.90;1.00;;;;;;5003917;28;20412;-81
2022/01/04 05:32:55;;;;;;;2.33;2.13;;;10.90;1.00;;;;;;5010365;28;20216;-78
2022/01/04 05:35:26;;;;;;;6.63;2.33;;;10.90;1.00;;;;;;5001503;28;20419;-77
2022/01/04 05:37:52;;;;;;;2.10;1.90;;;10.90;1.00;;;;;;5005789;28;20408;-77
2022/01/04 05:40:48;;;;;;;1.70;1.60;;;10.90;1.00;;;;;;5000959;28;20423;-77
2022/01/04 05:43:14;;;;;;;1.97;1.87;;;10.90;1.00;;;;;;5007004;28;20213;-77
2022/01/04 05:45:43;;;;;;;3.30;2.40;;;11.00;1.00;;;;;;5015604;28;20447;-77
2022/01/04 05:48:20;;;;;;;3.73;1.60;;;10.90;1.00;;;;;;5001905;28;20655;-77
2022/01/04 05:50:49;;;;;;;1.93;1.83;;;10.90;1.00;;;;;;5015718;28;20827;-76
2022/01/04 05:53:19;;;;;;;2.17;1.90;;;10.90;1.00;;;;;;5016458;28;20832;-77
2022/01/04 05:55:49;;;;;;;4.50;1.83;;;10.90;1.00;;;;;;4997247;28;20462;-77
2022/01/04 05:58:19;;;;;;;2.60;2.00;;;10.90;1.00;;;;;;5013559;28;20419;-77
2022/01/04 06:00:49;;;;;;;9.10;1.93;;;10.90;1.00;;;;;;4991196;28;20980;-78
2022/01/04 06:03:25;;;;;;;2.37;1.97;;;10.90;1.00;;;;;;5016573;28;20744;-81
2022/01/04 06:05:56;;;;;;;4.30;2.57;;;11.00;1.00;;;;;;5002373;28;20424;-80
2022/01/04 06:08:22;;;;;;;1.93;1.83;;;11.00;1.00;;;;;;5005988;28;20431;-81
2022/01/04 06:10:51;;;;;;;1.73;1.63;;;11.00;1.00;;;;;;5012133;28;20428;-81
2022/01/04 06:16:13;;;;;;;3.43;2.00;;;11.00;1.00;;;;;;5016196;28;20515;-81
2022/01/04 06:18:41;;;;;;;2.10;1.93;;;11.00;1.00;;;;;;5010051;28;20423;-81
2022/01/04 06:21:08;;;;;;;1.53;1.43;;;11.00;1.00;;;;;;5012344;28;20478;-81
2022/01/04 06:24:06;;;;;;;2.03;1.83;;;11.00;1.00;;;;;;5014290;28;20883;-81
2022/01/04 06:26:32;;;;;;;2.67;1.70;;;11.10;1.00;;;;;;5007064;28;20426;-81
2022/01/04 06:29:48;;;;;;;2.30;2.10;;;11.10;1.00;;;;;;5008956;28;20423;-81
2022/01/04 06:32:19;;;;;;;1.87;1.63;;;11.10;1.00;;;;;;5009158;28;20663;-82
2022/01/04 06:34:55;;;;;;;1.73;1.63;;;11.20;1.00;;;;;;5003738;28;20439;-77
2022/01/04 06:37:25;;;;;;;3.73;1.83;;;11.10;1.00;;;;;;5004267;28;20472;-77
2022/01/04 06:40:36;;;;;;;2.97;1.80;;;11.10;1.00;;;;;;5013915;28;20477;-77
2022/01/04 06:43:05;;;;;;;5.43;3.80;;;11.10;1.00;;;;;;5007448;28;20420;-76
2022/01/04 06:45:31;;;;;;;1.73;1.63;;;11.10;1.00;;;;;;4998467;28;20433;-77
2022/01/04 06:48:36;;;;;;;4.33;1.57;;;11.20;1.00;;;;;;5015863;28;20431;-78
2022/01/04 06:51:13;;;;;;;4.00;2.50;;;11.20;1.00;;;;;;5009622;28;20185;-77
2022/01/04 06:53:44;;;;;;;2.47;1.70;;;11.10;1.00;;;;;;5003119;28;20513;-77
2022/01/04 06:56:13;;;;;;;3.47;1.33;;;11.00;1.00;;;;;;5013928;28;20459;-77
2022/01/04 06:58:43;;;;;;;1.30;0.90;;;10.90;1.00;;;;;;5014713;28;20514;-77
2022/01/04 07:01:19;;;;;;;4.10;1.53;;;10.60;1.00;;;;;;5002090;28;20411;-77
2022/01/04 07:03:49;;;;;;;1.60;1.50;;;10.40;1.00;;;;;;5005768;28;20426;-80
2022/01/04 07:06:15;;;;;;;2.57;2.37;;;;;;;;;;4999901;28;20412;-80
2022/01/04 07:08:49;;;;;;;0.80;0.50;;;10.10;1.00;;;;;;5006804;28;20923;-81
2022/01/04 07:11:25;;;;;;;0.77;0.77;;;10.10;1.00;;;;;;5002292;28;20427;-82
2022/01/04 07:13:55;;;;;;;0.80;0.80;;;10.00;1.00;;;;;;4996693;28;20412;-81
2022/01/04 07:19:43;;;;;;;0.57;0.57;;;9.90;1.00;;;;;;5010887;28;20765;-77
2022/01/04 07:22:37;;;;;;;0.67;0.63;;;9.90;1.00;;;;;;4993627;28;20794;-76
2022/01/04 07:25:04;;;;;;;0.60;0.60;;;9.70;1.00;;;;;;4996615;28;20428;-77
2022/01/04 07:27:30;;;;;;;0.57;0.57;;;9.70;1.00;;;;;;5002371;28;20447;-76
2022/01/04 07:30:07;;;;;;;0.80;0.80;;;9.60;1.00;;;;;;5006503;28;20415;-76
2022/01/04 07:32:37;;;;;;;0.80;0.80;;;9.30;1.00;;;;;;5003070;28;20508;-76
2022/01/04 07:35:03;;;;;;;0.90;0.90;;;9.30;1.00;;;;;;5006492;28;20412;-80
2022/01/04 07:37:29;;;;;;;0.70;0.67;;;9.40;1.00;;;;;;4990314;28;20487;-80
2022/01/04 07:39:55;;;;;;;1.80;0.93;;;;;;;;;;5008150;28;20515;-79
2022/01/04 07:42:21;;;;;;;1.13;0.97;;;9.40;1.00;;;;;;4999281;28;20264;-80
2022/01/04 07:44:46;;;;;;;1.13;1.00;;;9.40;1.00;;;;;;5011690;28;20433;-81
2022/01/04 07:47:12;;;;;;;0.73;0.73;;;;;;;;;;5002469;28;20189;-81
2022/01/04 07:49:38;;;;;;;1.30;1.03;;;9.30;1.00;;;;;;5010427;28;20272;-80
2022/01/04 07:52:04;;;;;;;1.37;0.60;;;9.30;1.00;;;;;;5010781;28;20495;-81
2022/01/04 07:54:29;;;;;;;1.47;0.77;;;9.30;1.00;;;;;;5009469;28;20263;-80
2022/01/04 07:56:55;;;;;;;1.17;0.80;;;;;;;;;;4993851;28;20243;-80
2022/01/04 07:59:21;;;;;;;0.80;0.80;;;9.30;1.00;;;;;;5003966;28;20185;-80
2022/01/04 08:01:47;;;;;;;0.60;0.60;;;9.50;1.00;;;;;;5011362;28;20907;-83
2022/01/04 08:04:13;;;;;;;0.63;0.63;;;10.20;1.00;;;;;;4988807;28;20443;-81
2022/01/04 08:06:39;;;;;;;1.33;0.73;;;9.30;1.00;;;;;;5004672;28;20188;-80
2022/01/04 08:09:05;;;;;;;2.80;0.70;;;9.30;1.00;;;;;;5012302;28;20264;-80
2022/01/04 08:11:32;;;;;;;0.77;0.77;;;9.30;1.00;;;;;;4992915;28;20522;-81
2022/01/04 08:13:57;;;;;;;3.77;0.97;;;9.30;1.00;;;;;;5012606;28;20470;-80
2022/01/04 08:16:25;;;;;;;0.50;0.50;;;9.30;1.00;;;;;;5008593;28;20467;-80
2022/01/04 08:18:51;;;;;;;0.60;0.60;;;9.30;1.00;;;;;;5009259;28;20428;-76
2022/01/04 08:21:18;;;;;;;1.17;0.70;;;9.20;1.00;;;;;;4994759;28;20431;-78
2022/01/04 08:23:44;;;;;;;0.50;0.50;;;9.20;1.00;;;;;;4995419;28;20427;-77
2022/01/04 08:26:10;;;;;;;0.70;0.70;;;9.20;1.00;;;;;;5007473;28;20828;-77
2022/01/04 08:28:36;;;;;;;0.70;0.60;;;;;;;;;;5000043;28;20539;-77
2022/01/04 08:31:02;;;;;;;0.50;0.50;;;9.20;1.00;;;;;;4985898;28;20184;-76
2022/01/04 08:33:29;;;;;;;0.50;0.50;;;9.20;1.00;;;;;;5009930;28;20773;-81
2022/01/04 08:35:59;;;;;;;0.67;0.57;;;9.20;1.00;;;;;;4991547;28;20470;-78
2022/01/04 08:38:24;;;;;;;1.73;0.80;;;9.20;1.00;;;;;;4980033;28;20463;-76
2022/01/04 08:40:50;;;;;;;0.60;0.60;;;9.20;1.00;;;;;;4996886;28;20935;-76
2022/01/04 08:43:16;;;;;;;0.60;0.60;;;9.30;1.00;;;;;;5006012;28;20185;-76
2022/01/04 08:45:42;;;;;;;0.60;0.60;;;9.20;1.00;;;;;;5006933;28;20177;-75
2022/01/04 08:48:08;;;;;;;0.90;0.60;;;9.10;1.00;;;;;;5004853;28;20419;-76
2022/01/04 08:50:33;;;;;;;1.30;0.60;;;9.20;1.00;;;;;;5009670;28;20584;-79
2022/01/04 08:52:59;;;;;;;0.70;0.50;;;9.20;1.00;;;;;;5009634;28;20633;-80
2022/01/04 08:55:25;;;;;;;0.47;0.43;;;9.20;1.00;;;;;;4999348;28;20636;-80
2022/01/04 08:57:51;;;;;;;0.60;0.60;;;10.00;1.00;;;;;;5010344;28;20231;-79
2022/01/04 09:00:17;;;;;;;3.33;0.50;;;9.30;1.00;;;;;;5001961;28;20439;-80
2022/01/04 09:02:45;;;;;;;0.40;0.40;;;9.20;1.00;;;;;;5003513;28;20177;-79
2022/01/04 09:05:11;;;;;;;0.57;0.50;;;9.30;1.00;;;;;;5007866;28;20181;-76
2022/01/04 09:07:38;;;;;;;1.43;0.40;;;9.30;1.00;;;;;;4996082;28;20436;-76
2022/01/04 09:10:05;;;;;;;0.53;0.50;;;9.40;1.00;;;;;;5007012;28;20430;-76
2022/01/04 09:15:46;;;;;;;0.63;0.63;;;9.10;1.00;;;;;;4965994;28;20418;-76
2022/01/04 09:20:58;;;;;;;0.80;0.67;;;9.20;1.00;;;;;;4966217;28;20798;-76
2022/01/04 09:23:24;;;;;;;15.03;0.80;;;9.30;1.00;;;;;;4969901;28;20426;-76
2022/01/04 09:25:52;;;;;;;0.40;0.40;;;9.30;1.00;;;;;;4970645;28;20413;-76
2022/01/04 09:28:19;;;;;;;0.60;0.60;;;9.40;1.00;;;;;;4974632;28;20198;-76
2022/01/04 09:30:48;;;;;;;0.50;0.50;;;9.30;1.00;;;;;;4973356;28;20426;-76
2022/01/04 09:33:21;;;;;;;0.50;0.50;;;9.40;1.00;;;;;;4974601;28;20508;-76
2022/01/04 09:35:49;;;;;;;0.40;0.40;;;9.40;1.00;;;;;;4973361;28;20429;-76
2022/01/04 09:38:15;;;;;;;0.40;0.40;;;9.40;1.00;;;;;;4963220;28;20807;-76
2022/01/04 09:40:41;;;;;;;0.40;0.40;;;9.40;1.00;;;;;;4972016;28;20433;-76
2022/01/04 09:43:07;;;;;;;0.80;0.80;;;9.40;1.00;;;;;;4973480;28;20413;-76
2022/01/04 09:45:33;;;;;;;0.50;0.50;;;9.40;1.00;;;;;;4973621;28;20627;-76
2022/01/04 09:47:59;;;;;;;0.50;0.50;;;9.30;1.00;;;;;;4973236;28;20936;-76
2022/01/04 09:50:25;;;;;;;0.60;0.60;;;9.30;1.00;;;;;;4956691;28;20449;-79
2022/01/04 09:52:53;;;;;;;0.50;0.50;;;9.30;1.00;;;;;;4997475;28;20433;-79
2022/01/04 09:55:18;;;;;;;0.60;0.60;;;9.20;1.00;;;;;;5004903;28;20165;-80
2022/01/04 09:57:46;;;;;;;0.70;0.60;;;9.70;1.00;;;;;;4997334;28;20534;-79
2022/01/04 10:00:17;;;;;;;1.23;0.50;;;9.30;1.00;;;;;;5013858;28;20184;-80
2022/01/04 10:02:52;;;;;;;1.23;0.60;;;9.20;1.00;;;;;;5007198;28;20503;-79
2022/01/04 10:05:29;;;;;;;3.13;0.70;;;9.70;1.00;;;;;;5011329;28;20456;-76
2022/01/04 10:08:05;;;;;;;0.60;0.50;;;9.30;1.00;;;;;;4998936;28;20451;-76
2022/01/04 10:10:31;;;;;;;0.40;0.40;;;9.30;1.00;;;;;;4992132;28;20868;-76
2022/01/04 10:13:00;;;;;;;0.50;0.50;;;9.20;1.00;;;;;;5010809;28;20466;-77
2022/01/04 10:15:48;;;;;;;0.57;0.50;;;9.30;1.00;;;;;;5013142;28;20415;-77
2022/01/04 10:18:13;;;;;;;0.60;0.50;;;9.30;1.00;;;;;;4997139;28;20448;-77
2022/01/04 10:20:40;;;;;;;0.70;0.53;;;9.40;1.00;;;;;;5008620;28;20436;-79
2022/01/04 10:23:11;;;;;;;3.40;0.60;;;9.40;1.00;;;;;;5013971;28;20204;-79
2022/01/04 10:25:37;;;;;;;0.60;0.60;;;9.80;1.00;;;;;;5002810;28;20428;-79
2022/01/04 10:28:03;;;;;;;0.60;0.60;;;9.30;1.00;;;;;;5012615;28;20849;-79
2022/01/04 10:30:34;;;;;;;0.60;0.60;;;9.40;1.00;;;;;;5014097;28;20474;-79
2022/01/04 10:33:14;;;;;;;0.60;0.60;;;9.80;1.00;;;;;;5011136;28;20469;-79
2022/01/04 10:35:48;;;;;;;0.50;0.50;;;9.20;1.00;;;;;;5009008;28;20849;-76
2022/01/04 10:38:34;;;;;;;4.30;0.60;;;9.30;1.00;;;;;;4995260;28;20443;-76
2022/01/04 10:41:21;;;;;;;0.60;0.60;;;9.30;1.00;;;;;;5005072;28;20420;-76
2022/01/04 10:43:53;;;;;;;1.47;0.83;;;9.30;1.00;;;;;;5012497;28;20420;-76
2022/01/04 10:46:32;;;;;;;0.60;0.60;;;9.20;1.00;;;;;;5011115;28;20430;-76
2022/01/04 10:48:58;;;;;;;0.60;0.60;;;9.20;1.00;;;;;;5010476;28;20382;-76
2022/01/04 10:51:26;;;;;;;0.50;0.50;;;8.80;1.00;;;;;;5012683;28;20524;-79
2022/01/04 10:54:01;;;;;;;0.50;0.50;;;8.80;1.00;;;;;;5005293;28;20942;-79
2022/01/04 10:56:33;;;;;;;0.70;0.40;;;8.80;1.00;;;;;;5010277;28;20463;-79
2022/01/04 10:59:03;;;;;;;0.80;0.60;;;8.50;1.00;;;;;;5007446;28;20419;-79
2022/01/04 11:01:38;;;;;;;0.40;0.40;;;8.30;1.00;;;;;;5014413;28;20407;-80
2022/01/04 11:04:20;;;;;;;0.50;0.50;;;8.00;1.00;;;;;;4998230;28;20469;-79
2022/01/04 11:06:48;;;;;;;3.23;0.40;;;8.10;1.00;;;;;;4995583;28;20459;-77
2022/01/04 11:09:22;;;;;;;0.40;0.40;;;8.10;1.00;;;;;;4995951;28;20428;-76
2022/01/04 11:11:48;;;;;;;0.40;0.40;;;8.20;1.00;;;;;;5014214;28;20411;-77
2022/01/04 11:14:14;;;;;;;0.40;0.40;;;8.10;1.00;;;;;;5010627;28;20415;-77
2022/01/04 11:16:44;;;;;;;0.40;0.40;;;8.30;1.00;;;;;;4979985;28;20205;-76
2022/01/04 11:19:09;;;;;;;0.50;0.50;;;8.30;1.00;;;;;;4990019;28;20416;-76
2022/01/04 11:21:42;;;;;;;0.50;0.50;;;8.10;1.00;;;;;;4994017;28;20435;-77
2022/01/04 11:24:16;;;;;;;0.40;0.30;;;8.20;1.00;;;;;;5012480;28;20180;-76
2022/01/04 11:26:46;;;;;;;0.70;0.60;;;8.30;1.00;;;;;;4996786;28;20432;-77
2022/01/04 11:29:16;;;;;;;0.40;0.40;;;8.10;1.00;;;;;;4994287;28;20465;-76
2022/01/04 11:31:48;;;;;;;0.40;0.40;;;8.30;1.00;;;;;;5006965;28;20815;-76
2022/01/04 11:34:37;;;;;;;0.50;0.50;;;8.30;1.00;;;;;;5011154;28;20415;-76
2022/01/04 11:37:03;;;;;;;2.47;2.20;;;;;;;;;;4914943;29;20491;-76
2022/01/04 11:39:31;;;;;;;1.30;0.63;;;8.40;1.00;;;;;;4927983;29;20447;-76
2022/01/04 11:41:58;;;;;;;0.90;0.60;;;8.30;1.00;;;;;;4933603;29;20954;-76
2022/01/04 11:44:27;;;;;;;0.40;0.40;;;8.50;1.00;;;;;;4934269;29;20914;-76
2022/01/04 11:47:09;;;;;;;1.13;0.40;;;8.50;1.00;;;;;;4933665;29;20768;-76
2022/01/04 11:49:40;;;;;;;1.33;0.50;;;8.60;1.00;;;;;;4933064;29;20943;-76
2022/01/04 11:52:08;;;;;;;0.50;0.50;;;8.70;1.00;;;;;;4944632;29;20566;-76
2022/01/04 11:54:35;;;;;;;2.93;0.50;;;8.70;1.00;;;;;;4934609;29;20912;-76
2022/01/04 11:57:08;;;;;;;0.63;0.63;;;8.70;1.00;;;;;;4936092;29;20459;-76
2022/01/04 11:59:38;;;;;;;0.50;0.50;;;8.80;1.00;;;;;;4932754;29;20435;-76
2022/01/04 12:02:32;;;;;;;0.40;0.40;;;8.80;1.00;;;;;;4938013;29;20820;-76
2022/01/04 12:05:13;;;;;;;0.40;0.37;;;8.80;1.00;;;;;;4939041;29;20431;-76
2022/01/04 12:07:39;;;;;;;0.70;0.50;;;8.90;1.00;;;;;;4941000;29;20489;-80
2022/01/04 12:10:27;;;;;;;0.50;0.50;;;8.90;1.00;;;;;;4939069;29;20423;-79
2022/01/04 12:13:06;;;;;;;0.80;0.80;;;8.90;1.00;;;;;;4899250;29;20189;-79
2022/01/04 12:15:32;;;;;;;0.70;0.50;;;8.90;1.00;;;;;;4924372;29;20463;-79
2022/01/04 12:18:00;;;;;;;1.10;0.50;;;8.90;1.00;;;;;;4932590;29;20526;-79
2022/01/04 12:20:47;;;;;;;1.33;0.70;;;8.90;1.00;;;;;;4913244;29;20672;-79
2022/01/04 12:23:31;;;;;;;0.60;0.50;;;8.90;1.00;;;;;;4924942;29;20432;-79
2022/01/04 12:26:03;;;;;;;0.40;0.40;;;9.00;1.00;;;;;;4926079;29;20823;-79
2022/01/04 12:29:05;;;;;;;0.50;0.50;;;9.00;1.00;;;;;;4928243;29;20459;-79
2022/01/04 12:31:34;;;;;;;0.77;0.73;;;9.00;1.00;;;;;;4932272;29;20424;-80
2022/01/04 12:34:07;;;;;;;1.07;0.50;;;9.00;1.00;;;;;;4932114;29;20565;-79
2022/01/04 12:36:41;;;;;;;0.90;0.80;;;9.10;1.00;;;;;;4932730;29;20475;-76
2022/01/04 12:39:21;;;;;;;3.63;0.63;;;9.10;1.00;;;;;;4931512;29;20507;-76
2022/01/04 12:41:51;;;;;;;0.50;0.50;;;9.20;1.00;;;;;;4940723;29;20957;-75
2022/01/04 12:44:27;;;;;;;0.70;0.70;;;9.20;1.00;;;;;;4931998;29;20918;-76
2022/01/04 12:46:54;;;;;;;0.40;0.40;;;9.20;1.00;;;;;;4932619;29;20433;-76
2022/01/04 12:49:21;;;;;;;0.60;0.60;;;9.20;1.00;;;;;;4956123;28;20907;-76
2022/01/04 12:51:51;;;;;;;0.50;0.50;;;9.20;1.00;;;;;;4985058;28;20439;-75
2022/01/04 12:54:32;;;;;;;1.70;0.80;;;9.20;1.00;;;;;;4996017;28;20503;-75
2022/01/04 12:57:20;;;;;;;0.50;0.50;;;9.20;1.00;;;;;;5003369;28;20470;-75
2022/01/04 12:59:57;;;;;;;7.73;0.53;;;9.20;1.00;;;;;;5004983;28;20416;-75
2022/01/04 13:02:28;;;;;;;0.50;0.40;;;9.20;1.00;;;;;;4993125;28;20435;-76
2022/01/04 13:04:57;;;;;;;0.50;0.50;;;9.10;1.00;;;;;;5013742;28;20446;-75
2022/01/04 13:07:31;;;;;;;0.63;0.63;;;9.20;1.00;;;;;;5014842;28;20506;-77
2022/01/04 13:10:14;;;;;;;1.90;1.10;;;9.10;1.00;;;;;;5013435;28;20780;-79
2022/01/04 13:12:44;;;;;;;2.30;0.90;;;9.10;1.00;;;;;;5014797;28;20428;-79
2022/01/04 13:15:14;;;;;;;1.23;0.60;;;9.10;1.00;;;;;;5002989;28;20451;-80
2022/01/04 13:17:48;;;;;;;0.50;0.50;;;9.10;1.00;;;;;;4989878;28;20472;-80
2022/01/04 13:20:22;;;;;;;1.00;0.70;;;9.10;1.00;;;;;;5007797;28;20928;-80
2022/01/04 13:22:48;;;;;;;0.40;0.40;;;;;;;;;;5008087;28;20419;-76
2022/01/04 13:25:16;;;;;;;0.70;0.57;;;9.10;1.00;;;;;;5010346;28;20427;-76
2022/01/04 13:27:44;;;;;;;0.90;0.60;;;9.10;1.00;;;;;;5008554;28;20474;-76
2022/01/04 13:30:25;;;;;;;0.67;0.67;;;9.10;1.00;;;;;;5011092;28;20507;-76
2022/01/04 13:32:56;;;;;;;1.40;1.07;;;9.10;1.00;;;;;;5010661;28;20951;-76
2022/01/04 13:35:23;;;;;;;0.70;0.70;;;9.00;1.00;;;;;;5013236;28;20547;-76
2022/01/04 13:37:55;;;;;;;1.57;0.73;;;9.00;1.00;;;;;;4994105;28;20476;-79
2022/01/04 13:40:22;;;;;;;0.90;0.60;;;9.00;1.00;;;;;;5011379;28;20440;-79
2022/01/04 13:43:17;;;;;;;1.27;1.10;;;9.00;1.00;;;;;;4991421;28;20429;-79
2022/01/04 13:45:58;;;;;;;1.63;0.90;;;9.00;1.00;;;;;;4954933;29;20446;-80
2022/01/04 13:48:32;;;;;;;2.20;0.50;;;8.90;1.00;;;;;;4955248;29;20434;-79
2022/01/04 13:51:15;;;;;;;0.50;0.50;;;8.80;1.00;;;;;;4949280;28;20517;-79
2022/01/04 13:53:50;;;;;;;0.53;0.53;;;8.80;1.00;;;;;;4948331;28;20463;-75
2022/01/04 13:56:20;;;;;;;0.90;0.70;;;8.70;1.00;;;;;;4956081;28;20477;-75
2022/01/04 13:59:01;;;;;;;0.63;0.63;;;8.70;1.00;;;;;;4964368;28;20430;-75
2022/01/04 14:01:34;;;;;;;0.87;0.80;;;8.70;1.00;;;;;;4941937;29;20438;-75
2022/01/04 14:04:22;;;;;;;0.80;0.80;;;8.70;1.00;;;;;;4939407;29;20474;-76